createdAt,value
2022-10-17T00:01:20.157Z,100.00
2022-10-17T00:03:48.820Z,100.00
2022-10-17T00:06:17.617Z,100.00
2022-10-17T00:08:46.578Z,100.00
2022-10-17T00:11:17.607Z,100.00
2022-10-17T00:13:48.469Z,100.00
2022-10-17T00:16:25.924Z,100.00
2022-10-17T00:18:55.135Z,100.00
2022-10-17T00:21:25.270Z,100.00
2022-10-17T00:23:54.972Z,100.00
2022-10-17T00:26:23.990Z,100.00
2022-10-17T00:28:53.831Z,100.00
2022-10-17T00:31:25.853Z,100.00
2022-10-17T00:33:54.585Z,100.00
2022-10-17T00:36:25.868Z,100.00
2022-10-17T00:38:59.324Z,100.00
2022-10-17T00:41:31.071Z,100.00
2022-10-17T00:44:03.322Z,100.00
2022-10-17T00:46:35.074Z,100.00
2022-10-17T00:49:07.674Z,100.00
2022-10-17T00:51:42.130Z,100.00
2022-10-17T00:54:12.564Z,100.00
2022-10-17T00:56:41.410Z,100.00
2022-10-17T00:59:13.046Z,100.00
2022-10-17T01:01:45.763Z,100.00
2022-10-17T01:04:15.563Z,100.00
2022-10-17T01:06:44.194Z,100.00
2022-10-17T01:09:12.833Z,100.00
2022-10-17T01:11:51.963Z,100.00
2022-10-17T01:14:33.827Z,100.00
2022-10-17T01:17:12.164Z,100.00
2022-10-17T01:20:16.294Z,100.00
2022-10-17T01:23:00.041Z,100.00
2022-10-17T01:25:44.814Z,100.00
2022-10-17T01:28:40.965Z,100.00
2022-10-17T01:31:15.779Z,100.00
2022-10-17T01:33:59.767Z,100.00
2022-10-17T01:36:40.464Z,100.00
2022-10-17T01:39:21.381Z,100.00
2022-10-17T01:42:02.550Z,100.00
2022-10-17T01:44:43.659Z,100.00
2022-10-17T01:47:18.883Z,100.00
2022-10-17T01:49:51.267Z,100.00
2022-10-17T01:52:24.302Z,100.00
2022-10-17T01:54:56.905Z,100.00
2022-10-17T01:57:32.412Z,100.00
2022-10-17T02:00:06.331Z,100.00
2022-10-17T02:02:45.131Z,100.00
2022-10-17T02:05:14.363Z,100.00
2022-10-17T02:07:43.269Z,100.00
2022-10-17T02:10:20.525Z,100.00
2022-10-17T02:12:59.510Z,100.00
2022-10-17T02:16:00.094Z,100.00
2022-10-17T02:18:45.967Z,100.00
2022-10-17T02:21:25.670Z,100.00
2022-10-17T02:24:06.174Z,100.00
2022-10-17T02:26:41.668Z,100.00
2022-10-17T02:29:16.700Z,100.00
2022-10-17T02:31:53.131Z,100.00
2022-10-17T02:34:31.279Z,100.00
2022-10-17T02:37:01.621Z,100.00
2022-10-17T02:39:32.708Z,100.00
2022-10-17T02:42:07.010Z,100.00
2022-10-17T02:44:38.230Z,100.00
2022-10-17T02:47:19.260Z,100.00
2022-10-17T02:49:54.039Z,100.00
2022-10-17T02:52:36.329Z,100.00
2022-10-17T02:55:14.998Z,100.00
2022-10-17T02:57:50.261Z,100.00
2022-10-17T03:00:20.994Z,100.00
2022-10-17T03:02:51.371Z,100.00
2022-10-17T03:05:23.491Z,100.00
2022-10-17T03:07:51.876Z,100.00
2022-10-17T03:10:21.433Z,100.00
2022-10-17T03:12:50.268Z,100.00
2022-10-17T03:15:19.038Z,100.00
2022-10-17T03:17:47.447Z,100.00
2022-10-17T03:20:15.831Z,100.00
2022-10-17T03:22:45.499Z,100.00
2022-10-17T03:25:13.905Z,100.00
2022-10-17T03:27:42.636Z,100.00
2022-10-17T03:30:12.190Z,100.00
2022-10-17T03:32:41.068Z,100.00
2022-10-17T03:35:14.816Z,100.00
2022-10-17T03:37:47.792Z,100.00
2022-10-17T03:40:17.574Z,100.00
2022-10-17T03:42:46.283Z,100.00
2022-10-17T03:45:15.634Z,100.00
2022-10-17T03:47:44.137Z,100.00
2022-10-17T03:50:12.843Z,100.00
2022-10-17T03:52:42.304Z,100.00
2022-10-17T03:55:12.239Z,100.00
2022-10-17T03:57:43.420Z,100.00
2022-10-17T04:00:16.018Z,100.00
2022-10-17T04:02:50.897Z,100.00
2022-10-17T04:05:21.000Z,100.00
2022-10-17T04:07:50.070Z,100.00
2022-10-17T04:10:23.482Z,100.00
2022-10-17T04:12:52.973Z,100.00
2022-10-17T04:15:21.433Z,100.00
2022-10-17T04:17:50.095Z,100.00
2022-10-17T04:20:18.813Z,100.00
2022-10-17T04:22:47.988Z,100.00
2022-10-17T04:25:16.649Z,100.00
2022-10-17T04:27:49.058Z,100.00
2022-10-17T04:30:18.294Z,100.00
2022-10-17T04:32:47.626Z,100.00
2022-10-17T04:35:21.951Z,100.00
2022-10-17T04:37:58.121Z,100.00
2022-10-17T04:40:27.391Z,100.00
2022-10-17T04:42:58.208Z,100.00
2022-10-17T04:45:36.424Z,100.00
2022-10-17T04:48:07.379Z,100.00
2022-10-17T04:50:35.853Z,100.00
2022-10-17T04:53:23.288Z,100.00
2022-10-17T04:55:52.452Z,100.00
2022-10-17T04:58:22.211Z,100.00
2022-10-17T05:00:52.033Z,100.00
2022-10-17T05:03:24.389Z,100.00
2022-10-17T05:05:53.344Z,100.00
2022-10-17T05:08:22.065Z,100.00
2022-10-17T05:10:52.169Z,100.00
2022-10-17T05:13:22.450Z,100.00
2022-10-17T05:15:50.849Z,100.00
2022-10-17T05:18:19.610Z,100.00
2022-10-17T05:20:48.698Z,100.00
2022-10-17T05:23:17.042Z,100.00
2022-10-17T05:25:46.276Z,100.00
2022-10-17T05:28:14.929Z,100.00
2022-10-17T05:30:46.265Z,100.00
2022-10-17T05:33:14.947Z,100.00
2022-10-17T05:35:43.775Z,100.00
2022-10-17T05:38:12.565Z,100.00
2022-10-17T05:40:43.418Z,100.00
2022-10-17T05:43:12.135Z,100.00
2022-10-17T05:45:40.753Z,100.00
2022-10-17T05:48:14.993Z,100.00
2022-10-17T05:50:43.318Z,100.00
2022-10-17T05:53:18.445Z,100.00
2022-10-17T05:55:57.935Z,100.00
2022-10-17T06:01:28.221Z,100.00
2022-10-17T06:03:58.733Z,100.00
2022-10-17T06:06:27.201Z,100.00
2022-10-17T06:08:55.953Z,100.00
2022-10-17T06:11:30.168Z,100.00
2022-10-17T06:13:58.908Z,100.00
2022-10-17T06:16:30.129Z,100.00
2022-10-17T06:18:59.901Z,100.00
2022-10-17T06:21:29.665Z,100.00
2022-10-17T06:24:08.924Z,100.00
2022-10-17T06:26:39.547Z,100.00
2022-10-17T06:29:09.831Z,100.00
2022-10-17T06:31:44.806Z,100.00
2022-10-17T06:34:14.759Z,100.00
2022-10-17T06:36:43.548Z,100.00
2022-10-17T06:39:13.282Z,100.00
2022-10-17T06:41:51.070Z,100.00
2022-10-17T06:44:22.727Z,100.00
2022-10-17T06:47:10.845Z,100.00
2022-10-17T06:49:40.875Z,100.00
2022-10-17T06:52:29.767Z,100.00
2022-10-17T06:55:36.370Z,100.00
2022-10-17T06:58:27.068Z,100.00
2022-10-17T07:01:14.728Z,100.00
2022-10-17T07:03:44.926Z,100.00
2022-10-17T07:06:15.352Z,100.00
2022-10-17T07:08:45.881Z,100.00
2022-10-17T07:11:19.146Z,100.00
2022-10-17T07:13:48.385Z,100.00
2022-10-17T07:16:18.052Z,100.00
2022-10-17T07:18:51.257Z,100.00
2022-10-17T07:21:22.354Z,100.00
2022-10-17T07:23:50.714Z,100.00
2022-10-17T07:26:20.079Z,100.00
2022-10-17T07:28:56.139Z,100.00
2022-10-17T07:31:33.105Z,100.00
2022-10-17T07:34:02.062Z,100.00
2022-10-17T07:36:31.814Z,100.00
2022-10-17T07:39:02.962Z,100.00
2022-10-17T07:41:32.901Z,100.00
2022-10-17T07:44:01.659Z,100.00
2022-10-17T07:46:35.601Z,100.00
2022-10-17T07:49:04.250Z,100.00
2022-10-17T07:51:34.620Z,100.00
2022-10-17T07:54:02.976Z,100.00
2022-10-17T07:56:31.555Z,100.00
2022-10-17T07:59:02.623Z,100.00
2022-10-17T08:01:33.821Z,100.00
2022-10-17T08:04:02.458Z,100.00
2022-10-17T08:06:31.052Z,100.00
2022-10-17T08:09:01.659Z,100.00
2022-10-17T08:11:30.291Z,100.00
2022-10-17T08:13:58.566Z,100.00
2022-10-17T08:16:26.892Z,100.00
2022-10-17T08:18:55.574Z,100.00
2022-10-17T08:21:24.124Z,100.00
2022-10-17T08:23:52.408Z,100.00
2022-10-17T08:26:22.364Z,100.00
2022-10-17T08:28:51.169Z,100.00
2022-10-17T08:31:21.694Z,100.00
2022-10-17T08:33:51.808Z,100.00
2022-10-17T08:36:21.959Z,100.00
2022-10-17T08:38:52.955Z,100.00
2022-10-17T08:41:44.444Z,100.00
2022-10-17T08:44:30.992Z,100.00
2022-10-17T08:47:06.983Z,100.00
2022-10-17T08:49:47.007Z,100.00
2022-10-17T08:52:21.783Z,100.00
2022-10-17T08:54:51.937Z,100.00
2022-10-17T08:57:21.751Z,100.00
2022-10-17T08:59:53.718Z,100.00
2022-10-17T09:02:55.401Z,100.00
2022-10-17T09:05:38.431Z,100.00
2022-10-17T09:08:32.161Z,100.00
2022-10-17T09:11:10.828Z,100.00
2022-10-17T09:14:05.124Z,100.00
2022-10-17T09:17:04.266Z,100.00
2022-10-17T09:19:38.760Z,100.00
2022-10-17T09:22:14.410Z,100.00
2022-10-17T09:24:47.315Z,100.00
2022-10-17T09:27:26.330Z,100.00
2022-10-17T09:30:26.982Z,100.00
2022-10-17T09:33:03.064Z,100.00
2022-10-17T09:35:31.809Z,100.00
2022-10-17T09:38:00.491Z,100.00
2022-10-17T09:40:34.214Z,100.00
2022-10-17T09:43:07.957Z,100.00
2022-10-17T09:45:47.418Z,100.00
2022-10-17T09:48:26.027Z,100.00
2022-10-17T09:51:14.821Z,100.00
2022-10-17T09:53:51.408Z,100.00
2022-10-17T09:56:21.221Z,100.00
2022-10-17T09:58:52.837Z,100.00
2022-10-17T10:01:26.218Z,100.00
2022-10-17T10:04:10.701Z,100.00
2022-10-17T10:06:39.991Z,100.00
2022-10-17T10:09:26.955Z,98.96
2022-10-17T10:11:58.216Z,94.60
2022-10-17T10:14:33.582Z,91.16
2022-10-17T10:17:05.903Z,84.10
2022-10-17T10:19:38.090Z,84.38
2022-10-17T10:22:15.699Z,81.40
2022-10-17T10:24:44.512Z,79.80
2022-10-17T10:27:17.781Z,78.52
2022-10-17T10:29:53.912Z,78.09
2022-10-17T10:32:28.161Z,76.23
2022-10-17T10:35:02.066Z,76.23
2022-10-17T10:37:38.634Z,76.37
2022-10-17T10:40:19.012Z,70.38
2022-10-17T10:42:51.851Z,70.52
2022-10-17T10:48:22.771Z,70.05
2022-10-17T10:50:55.709Z,66.40
2022-10-17T10:53:37.208Z,67.48
2022-10-17T10:56:17.141Z,65.88
2022-10-17T10:58:56.973Z,68.34
2022-10-17T11:01:35.357Z,69.20
2022-10-17T11:04:22.860Z,66.22
2022-10-17T11:06:59.448Z,62.44
2022-10-17T11:09:46.180Z,65.34
2022-10-17T11:12:21.847Z,68.69
2022-10-17T11:14:58.706Z,64.74
2022-10-17T11:17:39.708Z,68.03
2022-10-17T11:20:23.296Z,70.54
2022-10-17T11:23:01.496Z,69.35
2022-10-17T11:25:34.884Z,70.20
2022-10-17T11:28:05.309Z,73.68
2022-10-17T11:30:47.170Z,75.54
2022-10-17T11:33:25.202Z,73.98
2022-10-17T11:36:02.309Z,77.18
2022-10-17T11:38:45.798Z,79.00
2022-10-17T11:41:23.184Z,78.47
2022-10-17T11:43:59.266Z,78.15
2022-10-17T11:46:30.149Z,75.11
2022-10-17T11:49:14.042Z,80.29
2022-10-17T11:52:07.469Z,78.45
2022-10-17T11:54:43.897Z,75.71
2022-10-17T11:57:43.297Z,75.56
2022-10-17T12:00:26.201Z,77.94
2022-10-17T12:03:13.661Z,79.06
2022-10-17T12:05:53.648Z,77.56
2022-10-17T12:08:37.614Z,77.08
2022-10-17T12:11:15.317Z,76.09
2022-10-17T12:13:56.399Z,75.12
2022-10-17T12:16:46.770Z,72.55
2022-10-17T12:19:34.154Z,69.90
2022-10-17T12:22:22.744Z,66.83
2022-10-17T12:25:02.642Z,65.19
2022-10-17T12:27:45.787Z,66.51
2022-10-17T12:30:26.993Z,67.54
2022-10-17T12:33:07.156Z,70.43
2022-10-17T12:35:39.189Z,71.23
2022-10-17T12:38:22.915Z,70.84
2022-10-17T12:41:04.322Z,70.97
2022-10-17T12:43:54.086Z,64.55
2022-10-17T12:46:52.009Z,68.99
2022-10-17T12:49:41.609Z,70.04
2022-10-17T12:53:05.014Z,66.34
2022-10-17T12:55:34.289Z,61.47
2022-10-17T12:58:08.149Z,61.29
2022-10-17T13:00:59.419Z,61.31
2022-10-17T13:03:35.902Z,63.99
2022-10-17T13:06:08.601Z,59.84
2022-10-17T13:08:44.341Z,60.59
2022-10-17T13:11:15.294Z,61.66
2022-10-17T13:13:49.289Z,58.14
2022-10-17T13:16:30.611Z,64.27
2022-10-17T13:18:59.610Z,61.22
2022-10-17T13:21:29.304Z,66.61
2022-10-17T13:23:57.793Z,68.28
2022-10-17T13:26:29.165Z,64.33
2022-10-17T13:31:39.583Z,61.70
2022-10-17T13:34:17.492Z,61.14
2022-10-17T13:36:49.407Z,59.18
2022-10-17T13:39:38.329Z,58.75
2022-10-17T13:42:22.710Z,61.99
2022-10-17T13:44:53.141Z,61.41
2022-10-17T13:47:28.018Z,66.64
2022-10-17T13:49:57.803Z,70.88
2022-10-17T13:52:30.840Z,64.13
2022-10-17T13:55:11.773Z,56.96
2022-10-17T13:57:42.075Z,57.20
2022-10-17T14:00:21.214Z,55.29
2022-10-17T14:02:49.732Z,55.87
2022-10-17T14:05:20.813Z,53.76
2022-10-17T14:10:45.308Z,53.28
2022-10-17T14:13:23.695Z,52.83
2022-10-17T14:15:55.865Z,52.53
2022-10-17T14:18:34.884Z,53.08
2022-10-17T14:24:14.539Z,56.57
2022-10-17T14:26:49.948Z,54.58
2022-10-17T14:29:26.505Z,51.91
2022-10-17T14:32:08.613Z,52.05
2022-10-17T14:34:40.525Z,50.79
2022-10-17T14:37:26.144Z,53.23
2022-10-17T14:39:56.125Z,53.71
2022-10-17T14:42:25.286Z,51.32
2022-10-17T14:44:58.553Z,52.68
2022-10-17T14:47:44.804Z,55.11
2022-10-17T14:50:25.737Z,56.25
2022-10-17T14:53:04.111Z,55.46
2022-10-17T14:55:36.711Z,57.64
2022-10-17T14:58:18.673Z,59.12
2022-10-17T15:00:47.042Z,60.17
2022-10-17T15:03:19.265Z,60.53
2022-10-17T15:05:48.239Z,61.09
2022-10-17T15:08:18.669Z,61.28
2022-10-17T15:10:49.362Z,60.83
2022-10-17T15:13:40.954Z,62.51
2022-10-17T15:16:18.029Z,63.13
2022-10-17T15:18:48.480Z,62.61
2022-10-17T15:21:33.323Z,67.48
2022-10-17T15:24:07.394Z,65.65
2022-10-17T15:26:36.408Z,67.39
2022-10-17T15:29:05.627Z,67.97
2022-10-17T15:31:35.335Z,73.12
2022-10-17T15:34:05.360Z,76.91
2022-10-17T15:36:40.132Z,77.78
2022-10-17T15:39:09.188Z,83.51
2022-10-17T15:41:37.980Z,86.19
2022-10-17T15:44:06.774Z,91.43
2022-10-17T15:46:37.137Z,97.76
2022-10-17T15:49:08.708Z,100.00
2022-10-17T15:51:37.444Z,100.00
2022-10-17T15:54:06.716Z,100.00
2022-10-17T15:56:39.489Z,100.00
2022-10-17T15:59:13.759Z,100.00
2022-10-17T16:01:43.607Z,100.00
2022-10-17T16:04:15.579Z,100.00
2022-10-17T16:06:44.355Z,100.00
2022-10-17T16:09:13.668Z,100.00
2022-10-17T16:11:45.529Z,100.00
2022-10-17T16:14:18.306Z,100.00
2022-10-17T16:16:46.732Z,100.00
2022-10-17T16:19:16.999Z,100.00
2022-10-17T16:21:46.052Z,100.00
2022-10-17T16:24:14.945Z,100.00
2022-10-17T16:26:43.531Z,100.00
2022-10-17T16:29:12.362Z,100.00
2022-10-17T16:31:44.839Z,100.00
2022-10-17T16:34:16.948Z,100.00
2022-10-17T16:36:45.659Z,100.00
2022-10-17T16:39:14.536Z,100.00
2022-10-17T16:41:43.289Z,100.00
2022-10-17T16:44:16.504Z,100.00
2022-10-17T16:46:45.222Z,100.00
2022-10-17T16:49:16.092Z,100.00
2022-10-17T16:51:46.215Z,100.00
2022-10-17T16:54:14.689Z,100.00
2022-10-17T16:56:43.402Z,100.00
2022-10-17T16:59:12.813Z,100.00
2022-10-17T17:01:41.762Z,100.00
2022-10-17T17:04:10.531Z,100.00
2022-10-17T17:06:39.286Z,100.00
2022-10-17T17:09:09.765Z,100.00
2022-10-17T17:11:39.215Z,100.00
2022-10-17T17:14:10.373Z,100.00
2022-10-17T17:16:39.140Z,100.00
2022-10-17T17:19:11.733Z,100.00
2022-10-17T17:21:43.127Z,100.00
2022-10-17T17:24:12.902Z,100.00
2022-10-17T17:26:42.085Z,100.00
2022-10-17T17:29:11.927Z,100.00
2022-10-17T17:31:40.701Z,100.00
2022-10-17T17:34:10.310Z,100.00
2022-10-17T17:36:41.463Z,100.00
2022-10-17T17:39:14.614Z,100.00
2022-10-17T17:41:44.557Z,100.00
2022-10-17T17:44:16.771Z,100.00
2022-10-17T17:46:46.341Z,100.00
2022-10-17T17:49:15.514Z,100.00
2022-10-17T17:51:46.622Z,100.00
2022-10-17T17:54:17.022Z,100.00
2022-10-17T17:56:45.800Z,100.00
2022-10-17T17:59:14.843Z,100.00
2022-10-17T18:01:44.014Z,100.00
2022-10-17T18:04:13.477Z,100.00
2022-10-17T18:06:41.981Z,100.00
2022-10-17T18:09:11.050Z,100.00
2022-10-17T18:11:41.931Z,100.00
2022-10-17T18:14:14.391Z,100.00
2022-10-17T18:16:43.296Z,100.00
2022-10-17T18:19:12.982Z,100.00
2022-10-17T18:21:41.759Z,100.00
2022-10-17T18:24:10.325Z,100.00
2022-10-17T18:26:40.492Z,100.00
2022-10-17T18:29:09.181Z,100.00
2022-10-17T18:31:37.778Z,100.00
2022-10-17T18:34:07.072Z,100.00
2022-10-17T18:36:37.618Z,100.00
2022-10-17T18:39:06.950Z,100.00
2022-10-17T18:41:35.869Z,100.00
2022-10-17T18:44:06.037Z,100.00
2022-10-17T18:46:40.947Z,100.00
2022-10-17T18:49:15.281Z,100.00
2022-10-17T18:51:44.104Z,100.00
2022-10-17T18:54:16.788Z,100.00
2022-10-17T18:56:45.399Z,100.00
2022-10-17T18:59:15.090Z,100.00
2022-10-17T19:01:44.661Z,100.00
2022-10-17T19:04:13.784Z,100.00
2022-10-17T19:06:44.721Z,100.00
2022-10-17T19:09:15.094Z,100.00
2022-10-17T19:11:43.971Z,100.00
2022-10-17T19:14:14.940Z,100.00
2022-10-17T19:16:49.430Z,100.00
2022-10-17T19:19:20.106Z,100.00
2022-10-17T19:21:49.308Z,100.00
2022-10-17T19:24:19.715Z,100.00
2022-10-17T19:26:50.597Z,100.00
2022-10-17T19:29:21.541Z,100.00
2022-10-17T19:31:50.770Z,100.00
2022-10-17T19:34:19.987Z,100.00
2022-10-17T19:36:48.883Z,100.00
2022-10-17T19:39:19.502Z,100.00
2022-10-17T19:41:49.474Z,100.00
2022-10-17T19:44:19.788Z,100.00
2022-10-17T19:46:49.251Z,100.00
2022-10-17T19:49:18.733Z,100.00
2022-10-17T19:51:47.561Z,100.00
2022-10-17T19:54:18.262Z,100.00
2022-10-17T19:56:47.203Z,100.00
2022-10-17T19:59:18.141Z,100.00
2022-10-17T20:01:47.996Z,100.00
2022-10-17T20:04:16.388Z,100.00
2022-10-17T20:06:44.707Z,100.00
2022-10-17T20:09:16.900Z,100.00
2022-10-17T20:11:46.145Z,100.00
2022-10-17T20:14:14.812Z,100.00
2022-10-17T20:16:44.766Z,100.00
2022-10-17T20:19:14.930Z,100.00
2022-10-17T20:21:44.584Z,100.00
2022-10-17T20:24:16.796Z,100.00
2022-10-17T20:26:46.444Z,100.00
2022-10-17T20:29:19.160Z,100.00
2022-10-17T20:31:48.958Z,100.00
2022-10-17T20:34:20.219Z,100.00
2022-10-17T20:36:49.464Z,100.00
2022-10-17T20:39:20.383Z,100.00
2022-10-17T20:41:49.013Z,100.00
2022-10-17T20:44:17.641Z,100.00
2022-10-17T20:47:00.689Z,100.00
2022-10-17T20:49:33.084Z,100.00
2022-10-17T20:52:02.298Z,100.00
2022-10-17T20:54:31.081Z,100.00
2022-10-17T20:57:02.483Z,100.00
2022-10-17T20:59:34.356Z,100.00
2022-10-17T21:02:03.257Z,100.00
2022-10-17T21:04:46.032Z,100.00
2022-10-17T21:07:15.835Z,100.00
2022-10-17T21:09:46.275Z,100.00
2022-10-17T21:12:21.747Z,100.00
2022-10-17T21:14:59.861Z,100.00
2022-10-17T21:17:28.183Z,100.00
2022-10-17T21:19:57.876Z,100.00
2022-10-17T21:22:27.099Z,100.00
2022-10-17T21:24:55.963Z,100.00
2022-10-17T21:27:24.558Z,100.00
2022-10-17T21:29:53.198Z,100.00
2022-10-17T21:32:40.120Z,100.00
2022-10-17T21:35:11.540Z,100.00
2022-10-17T21:37:40.130Z,100.00
2022-10-17T21:40:10.328Z,100.00
2022-10-17T21:42:38.925Z,100.00
2022-10-17T21:45:15.154Z,100.00
2022-10-17T21:48:11.079Z,100.00
2022-10-17T21:50:34.908Z,100.00
2022-10-17T21:53:03.498Z,100.00
2022-10-17T21:55:32.258Z,100.00
2022-10-17T21:58:00.537Z,100.00
2022-10-17T22:00:29.162Z,100.00
2022-10-17T22:02:57.790Z,100.00
2022-10-17T22:05:26.438Z,100.00
2022-10-17T22:07:56.065Z,100.00
2022-10-17T22:10:24.669Z,100.00
2022-10-17T22:12:53.008Z,100.00
2022-10-17T22:15:21.445Z,100.00
2022-10-17T22:17:50.038Z,100.00
2022-10-17T22:20:18.714Z,100.00
2022-10-17T22:22:47.556Z,100.00
2022-10-17T22:25:17.433Z,100.00
2022-10-17T22:27:46.051Z,100.00
2022-10-17T22:30:14.648Z,100.00
2022-10-17T22:32:42.948Z,100.00
2022-10-17T22:35:11.796Z,100.00
2022-10-17T22:37:40.350Z,100.00
2022-10-17T22:40:09.829Z,100.00
2022-10-17T22:42:39.413Z,100.00
2022-10-17T22:45:08.562Z,100.00
2022-10-17T22:47:37.143Z,100.00
2022-10-17T22:50:06.293Z,100.00
2022-10-17T22:52:34.887Z,100.00
2022-10-17T22:55:04.548Z,100.00
2022-10-17T22:57:33.274Z,100.00
2022-10-17T23:00:03.271Z,100.00
2022-10-17T23:02:32.663Z,100.00
2022-10-17T23:05:01.584Z,100.00
2022-10-17T23:07:30.226Z,100.00
2022-10-17T23:09:58.750Z,100.00
2022-10-17T23:12:27.584Z,100.00
2022-10-17T23:14:56.359Z,100.00
2022-10-17T23:17:26.424Z,100.00
2022-10-17T23:19:57.638Z,100.00
2022-10-17T23:22:26.445Z,100.00
2022-10-17T23:24:55.040Z,100.00
2022-10-17T23:27:23.294Z,100.00
2022-10-17T23:29:51.876Z,100.00
2022-10-17T23:32:21.110Z,100.00
2022-10-17T23:34:51.059Z,100.00
2022-10-17T23:37:20.021Z,100.00
2022-10-17T23:39:48.356Z,100.00
2022-10-17T23:42:16.623Z,100.00
2022-10-17T23:44:45.211Z,100.00
2022-10-17T23:47:13.814Z,100.00
2022-10-17T23:49:42.382Z,100.00
2022-10-17T23:52:12.227Z,100.00
2022-10-17T23:57:10.360Z,100.00
2022-10-17T23:59:39.009Z,100.00
